Time;durP1;ratioP1;P1;durP2;ratioP2;P2;SDS_P1;SDS_P2;PMS_P1;PMS_P2;Temp;Humidity;BMP_temperature;BMP_pressure;BME280_temperature;BME280_humidity;BME280_pressure;Samples;Min_cycle;Max_cycle;Signal;HPM_P1;HPM_P2
2022/05/10 00:00:18;;;;;;;1.45;0.70;;;;;;;20.73;37.39;101981.28;16126724;19;129283;-45
2022/05/10 00:05:41;;;;;;;2.83;0.80;;;;;;;20.73;37.00;101975.72;16122674;19;130309;-46
2022/05/10 00:11:03;;;;;;;1.33;0.80;;;;;;;20.71;37.25;101971.47;16137596;19;130539;-46
2022/05/10 00:16:25;;;;;;;1.67;0.70;;;;;;;20.70;37.01;101959.50;16137011;19;129700;-46
2022/05/10 00:21:47;;;;;;;1.58;0.70;;;;;;;20.70;37.42;101962.28;16138049;19;130372;-43
2022/05/10 00:27:09;;;;;;;0.80;0.60;;;;;;;20.69;37.01;101965.28;16135103;19;129696;-41
2022/05/10 00:32:34;;;;;;;1.00;0.80;;;;;;;20.67;37.43;101954.41;16138393;19;130286;-41
2022/05/10 00:37:59;;;;;;;1.77;0.90;;;;;;;20.66;37.20;101952.69;16136777;19;131274;-42
2022/05/10 00:43:27;;;;;;;0.63;0.53;;;;;;;20.66;37.21;101947.16;16136715;19;130451;-40
2022/05/10 00:48:57;;;;;;;2.50;0.85;;;;;;;20.65;37.04;101939.03;16131098;19;129660;-40
2022/05/10 00:54:24;;;;;;;1.10;0.60;;;;;;;20.65;37.35;101933.50;16138802;19;129053;-41
2022/05/10 00:59:56;;;;;;;1.10;0.60;;;;;;;20.63;36.88;101930.91;16137230;19;130624;-43
2022/05/10 01:05:23;;;;;;;1.38;0.63;;;;;;;20.61;37.41;101927.56;16132738;19;130378;-42
2022/05/10 01:11:12;;;;;;;1.77;0.80;;;;;;;20.60;37.38;101923.06;16133205;19;130535;-40
2022/05/10 01:16:34;;;;;;;1.00;0.73;;;;;;;20.57;37.27;101921.59;16130564;19;128999;-42
2022/05/10 01:22:33;;;;;;;0.80;0.70;;;;;;;20.59;37.33;101918.59;16131808;19;130327;-41
2022/05/10 01:28:20;;;;;;;1.05;0.68;;;;;;;20.56;37.41;101914.34;16128612;19;130537;-41
2022/05/10 01:33:48;;;;;;;;;;;;;;;20.52;37.13;101907.56;16133883;19;129904;-43
2022/05/10 01:39:27;;;;;;;1.45;0.82;;;;;;;20.53;37.44;101898.16;16132763;19;129858;-40
2022/05/10 01:45:15;;;;;;;2.65;0.80;;;;;;;20.52;37.44;101892.81;16133348;19;130565;-41
2022/05/10 01:50:52;;;;;;;0.90;0.70;;;;;;;20.51;37.08;101886.41;16126083;19;129763;-43
2022/05/10 01:56:25;;;;;;;1.75;0.93;;;;;;;20.51;37.44;101878.06;16131706;19;129896;-40
2022/05/10 02:01:47;;;;;;;0.85;0.50;;;;;;;20.50;37.19;101875.50;16132492;19;130601;-41
2022/05/10 02:07:18;;;;;;;2.35;0.90;;;;;;;20.50;37.09;101864.38;16131021;19;130587;-43
2022/05/10 02:12:59;;;;;;;1.70;0.70;;;;;;;20.50;37.10;101868.03;16127950;19;130549;-43
2022/05/10 02:18:28;;;;;;;1.00;0.70;;;;;;;20.48;37.47;101864.63;16130678;19;129899;-40
2022/05/10 02:23:57;;;;;;;1.08;0.93;;;;;;;20.47;36.96;101846.25;16129753;19;129748;-40
2022/05/10 02:29:38;;;;;;;1.38;0.70;;;;;;;20.49;37.40;101840.50;16123216;19;130494;-40
2022/05/10 02:35:04;;;;;;;1.42;0.60;;;;;;;20.46;37.06;101833.44;16124171;19;129944;-41
2022/05/10 02:40:25;;;;;;;1.45;0.70;;;;;;;20.45;37.26;101828.97;16130966;19;130336;-44
2022/05/10 02:45:47;;;;;;;1.40;0.88;;;;;;;20.44;37.04;101822.56;16129577;19;130566;-40
2022/05/10 02:51:09;;;;;;;1.70;0.68;;;;;;;20.45;37.03;101817.84;16129440;19;130290;-41
2022/05/10 02:56:32;;;;;;;1.52;0.70;;;;;;;20.44;37.20;101814.25;16128156;19;129701;-42
2022/05/10 03:02:05;;;;;;;0.50;0.50;;;;;;;20.44;37.40;101805.03;16127580;19;130191;-41
2022/05/10 03:07:29;;;;;;;0.90;0.60;;;;;;;20.43;37.14;101803.38;16126811;19;130316;-41
2022/05/10 03:12:50;;;;;;;2.55;0.98;;;;;;;20.42;37.42;101802.50;16123037;19;130380;-43
2022/05/10 03:18:12;;;;;;;0.98;0.60;;;;;;;20.42;37.06;101793.34;16128306;19;130213;-40
2022/05/10 03:23:35;;;;;;;1.67;0.60;;;;;;;20.40;37.05;101793.56;16127817;19;129430;-40
2022/05/10 03:28:57;;;;;;;1.05;0.70;;;;;;;20.41;37.25;101783.31;16124613;19;129503;-42
2022/05/10 03:39:59;;;;;;;2.35;0.60;;;;;;;20.39;37.22;101780.75;16126119;19;130094;-40
2022/05/10 03:45:22;;;;;;;1.27;0.90;;;;;;;20.39;37.36;101774.34;16140264;19;129866;-41
2022/05/10 03:50:44;;;;;;;1.00;0.70;;;;;;;20.38;37.25;101772.66;16136141;19;129820;-40
2022/05/10 03:56:06;;;;;;;0.70;0.60;;;;;;;20.39;37.22;101764.06;16137617;19;130179;-44
2022/05/10 04:01:28;;;;;;;0.80;0.60;;;;;;;20.39;37.08;101763.22;16137158;19;131146;-42
2022/05/10 04:06:50;;;;;;;1.65;0.50;;;;;;;20.38;37.20;101755.97;16140432;19;129770;-42
2022/05/10 04:12:12;;;;;;;1.77;0.55;;;;;;;20.38;37.14;101764.31;16138570;19;129821;-41
2022/05/10 04:17:34;;;;;;;1.55;0.70;;;;;;;20.38;37.44;101755.97;16135231;19;130006;-41
2022/05/10 04:22:55;;;;;;;0.80;0.50;;;;;;;20.38;37.41;101758.75;16140413;19;130136;-40
2022/05/10 04:28:18;;;;;;;1.95;0.45;;;;;;;20.37;37.15;101754.28;16137696;19;130982;-41
2022/05/10 04:33:40;;;;;;;0.80;0.50;;;;;;;20.37;37.00;101757.06;16138035;19;129702;-43
2022/05/10 04:39:03;;;;;;;0.70;0.50;;;;;;;20.37;37.25;101754.28;16137681;19;129718;-43
2022/05/10 04:44:25;;;;;;;0.50;0.50;;;;;;;20.36;37.31;101753.44;16140130;19;130123;-40
2022/05/10 04:49:47;;;;;;;0.75;0.50;;;;;;;20.36;37.32;101747.03;16135333;19;129571;-42
2022/05/10 04:55:09;;;;;;;0.60;0.60;;;;;;;20.36;37.04;101752.59;16134260;19;130604;-43
2022/05/10 05:00:31;;;;;;;0.47;0.40;;;;;;;20.37;37.44;101751.50;16138435;19;129607;-42
2022/05/10 05:05:53;;;;;;;1.95;0.70;;;;;;;20.35;37.26;101756.44;16135489;19;129786;-40
2022/05/10 05:11:15;;;;;;;1.05;0.70;;;;;;;20.33;37.45;101753.91;16131971;19;129726;-41
2022/05/10 05:16:37;;;;;;;1.25;0.50;;;;;;;20.35;37.39;101760.09;16129997;19;130510;-40
2022/05/10 05:21:59;;;;;;;5.32;1.02;;;;;;;20.34;37.41;101763.09;16134419;19;130123;-44
2022/05/10 05:27:22;;;;;;;3.47;2.10;;;;;;;20.37;37.33;101757.06;16133303;19;129665;-40
2022/05/10 05:32:45;;;;;;;5.35;2.28;;;;;;;20.41;37.68;101750.78;16135459;19;129121;-40
2022/05/10 05:38:07;;;;;;;8.05;2.10;;;;;;;20.49;37.47;101746.81;16134717;19;130445;-40
2022/05/10 05:43:29;;;;;;;3.03;1.35;;;;;;;20.54;37.70;101733.06;16134525;19;129960;-41
2022/05/10 05:48:50;;;;;;;5.47;2.15;;;;;;;20.59;37.41;101733.16;16132051;19;130294;-41
2022/05/10 05:54:12;;;;;;;2.38;1.42;;;;;;;20.66;37.39;101732.22;16127008;19;130814;-42
2022/05/10 05:59:34;;;;;;;9.27;2.50;;;;;;;20.67;37.86;101731.97;16128588;19;129486;-40
2022/05/10 06:04:59;;;;;;;;;;;;;;;20.67;37.64;101736.69;16129712;19;130556;-42
2022/05/10 06:10:22;;;;;;;3.70;2.10;;;;;;;20.71;37.61;101733.19;16130741;19;130525;-42
2022/05/10 06:15:44;;;;;;;2.17;1.60;;;;;;;20.74;37.67;101727.13;16128924;19;130562;-41
2022/05/10 06:21:06;;;;;;;3.90;1.90;;;;;;;20.75;37.54;101728.84;16132913;19;129674;-41
2022/05/10 06:26:27;;;;;;;5.40;1.73;;;;;;;20.78;37.91;101726.69;16131617;19;129588;-42
2022/05/10 06:31:49;;;;;;;3.25;1.88;;;;;;;20.79;37.74;101722.81;16126698;19;129224;-41
2022/05/10 06:38:16;;;;;;;6.15;1.67;;;;;;;20.79;37.67;101718.13;16132213;19;130263;-43
2022/05/10 06:42:59;;;;;;;7.10;1.80;;;;;;;20.81;37.64;101721.47;16130993;19;130123;-41
2022/05/10 06:48:21;;;;;;;2.78;1.77;;;;;;;20.82;37.61;101712.03;16129221;19;129722;-44
2022/05/10 06:53:43;;;;;;;2.83;1.70;;;;;;;20.84;37.72;101711.81;16129836;19;130261;-42
2022/05/10 06:59:05;;;;;;;3.95;1.83;;;;;;;20.86;37.71;101707.69;16120607;19;129691;-40
2022/05/10 07:04:27;;;;;;;4.47;1.60;;;;;;;20.89;37.72;101712.78;16135167;19;130549;-40
2022/05/10 07:09:48;;;;;;;3.30;1.65;;;;;;;20.93;37.80;101701.16;16130282;19;129050;-40
2022/05/10 07:15:15;;;;;;;4.57;1.88;;;;;;;20.96;38.21;101703.44;16128364;19;130201;-44
2022/05/10 07:20:38;;;;;;;3.10;2.15;;;;;;;20.96;38.41;101695.09;16140215;19;131425;-40
2022/05/10 07:26:03;;;;;;;3.83;1.90;;;;;;;20.98;38.13;101693.78;16146618;19;130814;-41
2022/05/10 07:31:25;;;;;;;3.38;1.75;;;;;;;21.01;38.16;101692.44;16145086;19;129786;-41
2022/05/10 07:36:47;;;;;;;5.35;1.85;;;;;;;21.02;38.46;101689.41;16148964;19;129462;-40
2022/05/10 07:42:08;;;;;;;2.80;1.70;;;;;;;21.03;38.71;101684.72;16143695;19;130186;-40
2022/05/10 07:47:35;;;;;;;5.05;1.80;;;;;;;21.02;38.62;101694.97;16142836;19;129597;-40
2022/05/10 07:52:58;;;;;;;8.38;2.20;;;;;;;21.03;39.02;101690.28;16147706;19;130224;-40
2022/05/10 07:58:21;;;;;;;3.25;1.73;;;;;;;21.03;38.78;101685.53;16147411;19;130056;-43
2022/05/10 08:03:43;;;;;;;8.30;2.22;;;;;;;21.04;38.82;101676.13;16147949;19;129168;-40
2022/05/10 08:09:05;;;;;;;3.50;2.10;;;;;;;21.05;39.24;101675.03;16146595;19;129295;-39
2022/05/10 08:14:27;;;;;;;3.58;2.08;;;;;;;21.04;39.11;101675.28;16142628;19;129391;-39
2022/05/10 08:19:50;;;;;;;6.03;2.70;;;;;;;21.03;38.78;101673.59;16142247;19;129799;-42
2022/05/10 08:25:13;;;;;;;4.00;2.20;;;;;;;21.04;38.78;101669.72;16139618;19;129633;-40
2022/05/10 08:30:35;;;;;;;3.55;2.40;;;;;;;21.03;38.91;101670.81;16141463;19;129333;-42
2022/05/10 08:35:58;;;;;;;4.30;2.10;;;;;;;21.05;38.99;101674.16;16146313;19;129508;-40
2022/05/10 08:41:54;;;;;;;6.05;2.60;;;;;;;21.08;39.08;101665.34;16146664;19;129546;-39
2022/05/10 08:47:16;;;;;;;8.65;2.20;;;;;;;21.09;38.97;101661.47;16145112;19;128948;-40
2022/05/10 08:52:45;;;;;;;6.90;2.30;;;;;;;21.12;38.85;101666.53;16144989;19;129396;-40
2022/05/10 08:58:16;;;;;;;4.35;2.10;;;;;;;21.18;38.51;101664.72;16144671;19;129435;-41
2022/05/10 09:04:19;;;;;;;5.68;2.08;;;;;;;21.27;38.46;101662.41;16143771;19;129088;-40
2022/05/10 09:09:59;;;;;;;4.53;2.22;;;;;;;21.32;38.69;101655.00;16141287;19;128970;-41
2022/05/10 09:15:21;;;;;;;7.88;2.35;;;;;;;21.35;38.49;101656.44;16140541;19;129242;-40
2022/05/10 09:21:06;;;;;;;4.57;2.10;;;;;;;21.43;38.74;101644.91;16146823;19;129872;-42
2022/05/10 09:26:36;;;;;;;3.47;2.03;;;;;;;21.48;38.70;101624.66;16140556;19;130393;-43
2022/05/10 09:37:43;;;;;;;4.55;2.03;;;;;;;21.54;38.73;101618.16;16142909;19;131846;-40
2022/05/10 09:43:32;;;;;;;2.20;1.83;;;;;;;21.60;38.13;101621.88;16139258;19;129908;-43
2022/05/10 09:48:54;;;;;;;3.72;1.88;;;;;;;21.61;38.35;101618.00;16139765;19;130686;-37
2022/05/10 09:54:32;;;;;;;5.05;2.10;;;;;;;21.65;38.16;101613.63;16142538;19;128911;-41
2022/05/10 09:59:53;;;;;;;3.30;2.03;;;;;;;21.63;38.42;101599.94;16139520;19;130082;-40
2022/05/10 10:05:17;;;;;;;3.78;1.90;;;;;;;21.65;38.60;101608.88;16139670;19;130018;-40
2022/05/10 10:10:39;;;;;;;4.57;2.35;;;;;;;21.66;38.32;101593.88;16138316;19;129387;-40
2022/05/10 10:16:01;;;;;;;3.83;1.95;;;;;;;21.68;37.96;101601.97;16133803;19;130410;-39
2022/05/10 10:21:23;;;;;;;2.65;1.73;;;;;;;21.70;38.35;101596.16;16138475;19;129570;-41
2022/05/10 10:26:49;;;;;;;3.97;2.22;;;;;;;21.72;38.23;101593.97;16131886;19;129059;-42
2022/05/10 10:32:23;;;;;;;5.70;1.85;;;;;;;21.75;38.28;101602.66;16132651;19;129559;-41
2022/05/10 10:38:06;;;;;;;5.43;2.00;;;;;;;21.77;38.11;101600.47;16136857;19;129428;-42
2022/05/10 10:43:36;;;;;;;9.52;2.05;;;;;;;21.77;38.07;101572.63;16137267;19;130604;-42
2022/05/10 10:49:06;;;;;;;4.47;1.98;;;;;;;21.77;38.17;101578.19;16135924;19;129636;-40
2022/05/10 10:54:30;;;;;;;5.07;1.88;;;;;;;21.77;37.90;101572.63;16137759;19;129429;-41
2022/05/10 11:00:00;;;;;;;11.77;2.13;;;;;;;21.79;38.13;101564.00;16132145;19;129496;-39
2022/05/10 11:06:05;;;;;;;3.83;1.92;;;;;;;21.81;38.16;101578.53;16133590;19;130753;-40
2022/05/10 11:11:29;;;;;;;4.43;2.40;;;;;;;21.83;38.11;101560.47;16133902;19;129117;-43
2022/05/10 11:17:06;;;;;;;5.63;2.53;;;;;;;21.89;38.39;101557.78;16133336;19;128812;-42
2022/05/10 11:22:41;;;;;;;7.40;2.92;;;;;;;21.88;38.05;101551.34;16137238;19;129404;-50
2022/05/10 11:28:28;;;;;;;5.13;2.70;;;;;;;21.92;37.82;101546.97;16137732;19;129512;-50
2022/05/10 11:34:01;;;;;;;7.82;3.35;;;;;;;21.91;37.94;101539.69;16138975;19;129179;-49
2022/05/10 11:39:45;;;;;;;8.18;3.25;;;;;;;21.92;37.70;101551.66;16136291;19;128803;-39
2022/05/10 11:45:29;;;;;;;7.97;2.97;;;;;;;21.92;37.89;101546.09;16132138;19;129977;-39
2022/05/10 11:57:00;;;;;;;11.52;3.35;;;;;;;21.92;37.83;101540.53;16133621;19;129542;-42
2022/05/10 12:02:29;;;;;;;7.43;2.80;;;;;;;21.94;37.57;101535.56;16134624;19;128861;-39
2022/05/10 12:08:02;;;;;;;5.40;3.08;;;;;;;21.94;37.35;101527.19;16148750;19;129100;-40
2022/05/10 12:25:49;;;;;;;7.22;3.00;;;;;;;21.98;37.70;101517.25;16146940;19;129540;-39
2022/05/10 12:31:29;;;;;;;6.20;3.03;;;;;;;21.96;37.41;101506.38;16144643;19;129445;-40
2022/05/10 12:36:51;;;;;;;5.05;3.10;;;;;;;21.96;37.62;101503.56;16148153;19;129597;-41
2022/05/10 12:42:21;;;;;;;9.82;3.28;;;;;;;21.98;37.31;101493.00;16147021;19;129477;-39
2022/05/10 12:47:57;;;;;;;11.07;3.13;;;;;;;22.01;37.38;101500.03;16148002;19;129991;-39
2022/05/10 12:53:46;;;;;;;7.70;3.30;;;;;;;22.02;37.25;101492.50;16140740;19;129518;-41
2022/05/10 12:59:40;;;;;;;5.60;3.10;;;;;;;22.01;37.32;101488.00;16144759;19;129698;-40
2022/05/10 13:05:07;;;;;;;4.72;3.28;;;;;;;22.05;36.90;101473.31;16135969;19;129741;-40
2022/05/10 13:10:33;;;;;;;10.77;2.65;;;;;;;22.08;36.72;101483.13;16134958;19;130111;-39
2022/05/10 13:15:56;;;;;;;;;;;;;;;22.07;37.13;101479.47;16130270;19;130311;-41
2022/05/10 13:21:24;;;;;;;6.55;2.97;;;;;;;22.11;36.88;101465.88;16136013;19;129750;-39
2022/05/10 13:27:05;;;;;;;7.13;3.40;;;;;;;22.12;37.09;101465.63;16133805;19;129624;-39
2022/05/10 13:32:42;;;;;;;5.50;3.25;;;;;;;22.11;37.13;101444.44;16130600;19;129547;-39
2022/05/10 13:38:13;;;;;;;3.95;3.20;;;;;;;22.12;37.19;101457.28;16135744;19;129579;-40
2022/05/10 13:43:42;;;;;;;5.03;3.58;;;;;;;22.12;37.26;101446.13;16138550;19;129121;-39
2022/05/10 13:49:12;;;;;;;7.78;3.75;;;;;;;22.13;37.12;101436.66;16138878;19;129211;-40
2022/05/10 13:54:38;;;;;;;8.85;3.55;;;;;;;22.10;37.06;101439.97;16141925;19;128982;-39
2022/05/10 14:00:19;;;;;;;5.70;3.78;;;;;;;22.14;36.93;101418.00;16142321;19;129616;-43
2022/05/10 14:05:46;;;;;;;4.80;3.38;;;;;;;22.11;37.03;101426.84;16140450;19;128845;-42
2022/05/10 14:11:11;;;;;;;11.55;3.38;;;;;;;22.10;37.05;101431.59;16137222;19;129536;-39
2022/05/10 14:16:36;;;;;;;7.50;3.13;;;;;;;22.10;36.77;101426.03;16135815;19;129841;-40
2022/05/10 14:22:05;;;;;;;5.55;3.35;;;;;;;22.09;36.88;101418.78;16135851;19;129014;-40
2022/05/10 14:27:30;;;;;;;5.20;3.08;;;;;;;22.07;36.90;101415.41;16138671;19;129173;-40
2022/05/10 14:32:51;;;;;;;5.63;3.10;;;;;;;22.07;36.89;101420.13;16135153;19;130288;-40
2022/05/10 14:38:21;;;;;;;12.32;3.05;;;;;;;22.06;36.56;101419.28;16141645;19;128957;-40
2022/05/10 14:43:43;;;;;;;6.22;3.05;;;;;;;22.04;37.05;101406.72;16140294;19;129803;-39
2022/05/10 14:49:07;;;;;;;6.07;2.53;;;;;;;22.04;36.60;101415.06;16136265;19;129293;-39
2022/05/10 14:54:40;;;;;;;5.60;2.60;;;;;;;22.02;36.83;101406.97;16139004;19;129292;-42
2022/05/10 15:06:12;;;;;;;8.20;2.55;;;;;;;21.98;36.44;101389.09;16129127;19;128967;-40
2022/05/10 15:13:03;;;;;;;5.32;2.35;;;;;;;21.97;36.59;101399.38;16119461;19;131280;-41
2022/05/10 15:17:20;;;;;;;5.13;2.43;;;;;;;21.95;36.54;101392.38;16121317;19;129653;-42
2022/05/10 15:22:42;;;;;;;4.72;2.30;;;;;;;21.95;36.44;101379.31;16126779;19;129109;-40
2022/05/10 15:28:04;;;;;;;4.18;1.92;;;;;;;21.95;36.30;101372.88;16128398;19;129034;-39
2022/05/10 15:33:26;;;;;;;4.78;2.00;;;;;;;21.94;36.18;101376.75;16124017;19;129620;-39
2022/05/10 15:38:49;;;;;;;7.05;2.13;;;;;;;21.93;36.17;101366.72;16137057;19;130242;-40
2022/05/10 15:44:13;;;;;;;8.57;2.40;;;;;;;21.92;36.21;101368.69;16150741;19;129937;-42
2022/05/10 15:49:35;;;;;;;9.05;2.03;;;;;;;21.89;36.08;101366.41;16152338;19;131271;-46
2022/05/10 15:54:57;;;;;;;6.43;2.33;;;;;;;21.88;35.90;101378.63;16146709;19;129961;-45
2022/05/10 16:00:23;;;;;;;6.32;2.40;;;;;;;21.86;35.69;101380.84;16152407;19;131000;-42
2022/05/10 16:05:50;;;;;;;7.55;2.40;;;;;;;21.85;36.21;101397.81;16149894;19;129393;-41
2022/05/10 16:11:13;;;;;;;5.28;1.92;;;;;;;21.83;36.45;101387.78;16143490;19;129567;-42
2022/05/10 16:16:35;;;;;;;4.38;2.05;;;;;;;21.85;36.64;101390.28;16142484;19;130268;-43
2022/05/10 16:21:57;;;;;;;9.95;2.00;;;;;;;21.87;36.30;101390.06;16143492;19;129882;-43
2022/05/10 16:33:04;;;;;;;10.15;1.95;;;;;;;21.87;37.13;101398.41;16137697;19;129665;-42
2022/05/10 16:38:26;;;;;;;9.85;2.08;;;;;;;21.87;37.02;101399.25;16141598;19;133469;-44
2022/05/10 16:43:48;;;;;;;13.63;2.72;;;;;;;21.86;37.41;101393.94;16142606;19;129941;-44
2022/05/10 16:49:10;;;;;;;9.25;2.45;;;;;;;21.83;37.14;101387.78;16140595;19;128973;-45
2022/05/10 16:54:37;;;;;;;10.70;2.03;;;;;;;21.85;37.27;101393.06;16137048;19;129651;-43
2022/05/10 17:00:00;;;;;;;3.03;1.65;;;;;;;21.83;37.48;101387.78;16139855;19;129320;-44
2022/05/10 17:05:26;;;;;;;8.35;1.92;;;;;;;21.85;37.45;101389.47;16142682;19;129402;-42
2022/05/10 17:10:48;;;;;;;14.90;2.65;;;;;;;21.82;37.68;101374.94;16136527;19;129686;-42
2022/05/10 17:16:10;;;;;;;11.45;2.00;;;;;;;21.82;37.68;101386.09;16137305;19;130621;-43
2022/05/10 17:21:31;;;;;;;10.48;1.90;;;;;;;21.83;37.79;101382.19;16141536;19;130293;-42
2022/05/10 17:26:54;;;;;;;10.52;1.80;;;;;;;21.84;38.01;101374.72;16143742;19;129723;-44
2022/05/10 17:32:15;;;;;;;12.75;2.05;;;;;;;21.87;37.87;101381.69;16138865;19;129234;-48
2022/05/10 17:37:37;;;;;;;10.77;1.98;;;;;;;21.87;37.82;101392.84;16136177;19;129521;-43
2022/05/10 17:42:59;;;;;;;11.07;1.75;;;;;;;21.87;38.17;101384.47;16140593;19;129031;-43
2022/05/10 17:48:22;;;;;;;5.85;1.80;;;;;;;21.83;37.94;101387.78;16138534;19;129096;-43
2022/05/10 17:53:46;;;;;;;6.45;1.80;;;;;;;21.83;37.86;101387.78;16136031;19;130854;-41
2022/05/10 17:59:09;;;;;;;10.43;1.60;;;;;;;21.81;37.79;101384.41;16138168;19;129168;-42
2022/05/10 18:04:33;;;;;;;10.48;1.98;;;;;;;21.80;37.84;101393.84;16136812;19;130002;-43
2022/05/10 18:09:54;;;;;;;7.75;1.55;;;;;;;21.79;37.17;101397.72;16137231;19;129075;-43
2022/05/10 18:15:16;;;;;;;12.00;1.80;;;;;;;21.77;37.33;101405.53;16133011;19;129586;-43
2022/05/10 18:20:38;;;;;;;4.85;1.20;;;;;;;21.73;36.99;101407.13;16137680;19;129749;-45
2022/05/10 18:26:02;;;;;;;12.52;2.15;;;;;;;21.69;37.20;101403.16;16135758;19;129223;-42
2022/05/10 18:31:24;;;;;;;6.68;1.30;;;;;;;21.69;37.17;101413.47;16133257;19;129690;-43
2022/05/10 18:36:46;;;;;;;5.65;1.20;;;;;;;21.68;37.25;101412.59;16135243;19;129938;-44
2022/05/10 18:42:08;;;;;;;7.00;1.42;;;;;;;21.66;37.54;101415.66;16133891;19;129285;-41
2022/05/10 18:47:29;;;;;;;3.92;1.20;;;;;;;21.67;37.64;101424.84;16130258;19;130116;-45
2022/05/10 18:52:55;;;;;;;11.25;1.95;;;;;;;21.68;37.46;101429.31;16127008;19;130399;-42
2022/05/10 18:58:17;;;;;;;5.57;1.25;;;;;;;21.67;37.28;101435.97;16129729;19;129288;-40
2022/05/10 19:03:39;;;;;;;9.07;1.30;;;;;;;21.69;37.42;101441.31;16131003;19;130669;-45
2022/05/10 19:09:01;;;;;;;2.00;0.88;;;;;;;21.68;37.46;101437.66;16125794;19;129925;-42
2022/05/10 19:14:28;;;;;;;8.32;1.17;;;;;;;21.68;37.28;101448.81;16130587;19;129303;-42
2022/05/10 19:19:50;;;;;;;3.78;1.30;;;;;;;21.67;37.27;101438.75;16149340;19;129585;-41
2022/05/10 19:25:15;;;;;;;4.63;1.15;;;;;;;21.67;37.25;101438.75;16147903;19;129272;-41
2022/05/10 19:30:37;;;;;;;6.88;0.85;;;;;;;21.66;37.55;101442.69;16143585;19;130438;-42
2022/05/10 19:35:59;;;;;;;5.60;1.65;;;;;;;21.64;37.69;101440.13;16142919;19;129710;-41
2022/05/10 19:41:20;;;;;;;6.85;1.05;;;;;;;21.64;37.45;101433.72;16141237;19;130059;-41
2022/05/10 19:46:42;;;;;;;7.47;1.27;;;;;;;21.63;37.81;101432.03;16143089;19;129721;-40
2022/05/10 19:52:04;;;;;;;11.63;1.48;;;;;;;21.62;37.97;101430.34;16139481;19;129667;-41
2022/05/10 19:57:26;;;;;;;12.98;1.60;;;;;;;21.64;37.80;101436.50;16139519;19;130623;-41
2022/05/10 20:08:29;;;;;;;10.07;1.17;;;;;;;21.63;37.96;101438.44;16139217;19;129575;-43
2022/05/10 20:13:51;;;;;;;10.65;1.23;;;;;;;21.61;37.99;101431.44;16131419;19;129459;-42
2022/05/10 20:19:13;;;;;;;7.03;1.38;;;;;;;21.60;37.85;101427.81;16127322;19;130398;-42
2022/05/10 20:24:35;;;;;;;3.40;1.10;;;;;;;21.58;38.07;101421.66;16128831;19;130048;-42
2022/05/10 20:29:56;;;;;;;7.30;0.95;;;;;;;21.56;37.80;101431.34;16144094;19;130159;-45
2022/05/10 20:35:25;;;;;;;2.95;1.20;;;;;;;21.52;37.72;101426.31;16134383;19;129433;-43
2022/05/10 20:40:47;;;;;;;7.88;1.00;;;;;;;21.51;38.04;101424.63;16135275;19;129722;-43
2022/05/10 20:46:09;;;;;;;3.20;0.70;;;;;;;21.49;37.57;101421.25;16138102;19;129242;-46
2022/05/10 20:51:31;;;;;;;5.10;0.98;;;;;;;21.49;37.71;101425.97;16134353;19;130258;-44
2022/05/10 20:56:53;;;;;;;4.47;0.80;;;;;;;21.47;37.58;101417.84;16133083;19;129748;-45
2022/05/10 21:02:15;;;;;;;2.53;0.70;;;;;;;21.46;37.57;101420.88;16138329;19;129345;-42
2022/05/10 21:13:19;;;;;;;2.35;0.65;;;;;;;21.42;37.88;101425.25;16134095;19;129622;-41
2022/05/10 21:18:41;;;;;;;5.93;0.70;;;;;;;21.41;37.92;101406.88;16130590;19;130399;-46
2022/05/10 21:24:03;;;;;;;1.33;0.45;;;;;;;21.39;37.96;101395.16;16133145;19;130208;-43
2022/05/10 21:35:07;;;;;;;3.40;0.60;;;;;;;21.37;37.66;101395.41;16131135;19;129316;-43
2022/05/10 21:40:30;;;;;;;2.20;0.40;;;;;;;21.34;37.90;101394.00;16135641;19;129652;-44
2022/05/10 21:45:56;;;;;;;2.72;0.40;;;;;;;21.34;38.19;101394.00;16132642;19;130741;-46
2022/05/10 21:51:17;;;;;;;0.50;0.40;;;;;;;21.33;38.10;101397.00;16127692;19;130744;-43
2022/05/10 21:56:39;;;;;;;0.90;0.50;;;;;;;21.32;38.25;101389.75;16129570;19;130381;-46
2022/05/10 22:02:01;;;;;;;0.90;0.40;;;;;;;21.31;38.07;101379.72;16129140;19;129488;-42
2022/05/10 22:07:22;;;;;;;1.35;0.40;;;;;;;21.31;38.15;101385.28;16132330;19;130548;-44
2022/05/10 22:12:46;;;;;;;2.28;0.45;;;;;;;21.30;37.73;101383.59;16127840;19;129403;-43
2022/05/10 22:18:08;;;;;;;1.00;0.50;;;;;;;21.29;38.22;101379.16;16126212;19;130759;-43
2022/05/10 22:23:29;;;;;;;0.80;0.60;;;;;;;21.28;38.25;101374.69;16129060;19;130727;-42
2022/05/10 22:28:51;;;;;;;1.23;0.50;;;;;;;21.26;37.91;101372.13;16130246;19;130981;-41
2022/05/10 22:34:13;;;;;;;0.70;0.40;;;;;;;21.27;38.24;101373.00;16125896;19;129864;-46
2022/05/10 22:39:38;;;;;;;1.02;0.45;;;;;;;21.27;37.83;101364.63;16127949;19;130293;-44
2022/05/10 22:45:02;;;;;;;2.17;0.40;;;;;;;21.26;37.77;101365.75;16129919;19;129616;-48
2022/05/10 22:50:25;;;;;;;2.47;0.50;;;;;;;21.24;37.98;101354.00;16130967;19;129700;-43
2022/05/10 22:55:46;;;;;;;0.50;0.28;;;;;;;21.23;38.26;101350.41;16125234;19;130588;-42
2022/05/10 23:01:12;;;;;;;0.63;0.30;;;;;;;21.22;38.27;101343.97;16130462;19;129794;-42
2022/05/10 23:06:34;;;;;;;1.60;0.50;;;;;;;21.21;37.90;101336.72;16130063;19;131502;-42
2022/05/10 23:11:56;;;;;;;1.02;0.60;;;;;;;21.21;38.00;101328.38;16127072;19;129649;-46
2022/05/10 23:17:18;;;;;;;1.08;0.40;;;;;;;21.20;37.79;101331.41;16121348;19;129828;-41
2022/05/10 23:22:42;;;;;;;0.88;0.47;;;;;;;21.20;37.78;101323.06;16126718;19;129714;-45
2022/05/10 23:28:04;;;;;;;3.70;0.50;;;;;;;21.19;38.09;101316.66;16129151;19;129759;-46
2022/05/10 23:33:26;;;;;;;0.50;0.43;;;;;;;21.19;37.84;101319.44;16114837;19;129950;-43
2022/05/10 23:38:48;;;;;;;1.10;0.47;;;;;;;21.19;38.20;101308.31;16113648;19;130256;-46
2022/05/10 23:44:18;;;;;;;0.75;0.30;;;;;;;21.17;37.87;101302.16;16113376;19;130046;-43
2022/05/10 23:49:40;;;;;;;0.50;0.40;;;;;;;21.16;38.25;101294.94;16122553;19;129754;-46
2022/05/10 23:55:02;;;;;;;0.70;0.40;;;;;;;21.15;38.07;101290.47;16122893;19;130179;-43
